Time;durP1;ratioP1;P1;durP2;ratioP2;P2;SDS_P1;SDS_P2;PMS_P1;PMS_P2;Temp;Humidity;BMP_temperature;BMP_pressure;BME280_temperature;BME280_humidity;BME280_pressure;Samples;Min_cycle;Max_cycle;Signal;HPM_P1;HPM_P2
2023/01/15 00:00:16;;;;;;;1.27;0.63;;;7.40;99.90;;;;;;5044636;28;20103;-64
2023/01/15 00:02:42;;;;;;;1.77;0.70;;;7.30;99.90;;;;;;5042783;28;20036;-64
2023/01/15 00:05:07;;;;;;;1.35;0.60;;;7.20;99.90;;;;;;5038565;28;20025;-64
2023/01/15 00:07:33;;;;;;;1.67;0.65;;;7.10;99.90;;;;;;5045756;28;20039;-64
2023/01/15 00:09:58;;;;;;;1.23;0.65;;;7.10;99.90;;;;;;5046393;28;20025;-64
2023/01/15 00:12:24;;;;;;;1.27;0.43;;;7.00;99.90;;;;;;5047270;28;20052;-64
2023/01/15 00:14:49;;;;;;;3.42;0.80;;;6.90;99.90;;;;;;5042519;28;20029;-64
2023/01/15 00:17:15;;;;;;;5.18;0.60;;;6.80;99.90;;;;;;5042821;28;20148;-64
2023/01/15 00:19:41;;;;;;;0.80;0.38;;;6.80;99.90;;;;;;5022990;28;20053;-64
2023/01/15 00:22:06;;;;;;;0.80;0.35;;;6.70;99.90;;;;;;5044961;28;20029;-64
2023/01/15 00:30:00;;;;;;;0.98;0.60;;;6.60;99.90;;;;;;5042397;28;20044;-64
2023/01/15 00:32:28;;;;;;;3.45;0.85;;;6.50;99.90;;;;;;5037801;28;20021;-64
2023/01/15 00:34:54;;;;;;;1.23;0.40;;;6.50;99.90;;;;;;5043648;28;20013;-64
2023/01/15 00:37:20;;;;;;;2.63;0.50;;;6.40;99.90;;;;;;5043049;28;20090;-64
2023/01/15 00:39:46;;;;;;;0.73;0.57;;;6.40;99.90;;;;;;5045611;28;20488;-63
2023/01/15 00:42:12;;;;;;;2.15;0.60;;;6.40;99.90;;;;;;5044437;28;20025;-64
2023/01/15 00:44:38;;;;;;;4.65;0.85;;;6.30;99.90;;;;;;5041099;28;20025;-64
2023/01/15 00:47:03;;;;;;;1.08;0.40;;;6.30;99.90;;;;;;5044402;28;20035;-64
2023/01/15 00:49:29;;;;;;;5.25;0.60;;;6.20;99.90;;;;;;5054271;28;20529;-64
2023/01/15 00:51:54;;;;;;;2.40;0.47;;;6.20;99.90;;;;;;5043553;28;20028;-64
2023/01/15 00:54:20;;;;;;;4.28;0.98;;;6.20;99.90;;;;;;5045750;28;20025;-64
2023/01/15 00:56:46;;;;;;;1.83;0.43;;;6.20;99.90;;;;;;5042551;28;20060;-64
2023/01/15 00:59:12;;;;;;;0.45;0.40;;;6.20;99.90;;;;;;5042170;28;20103;-64
2023/01/15 01:01:38;;;;;;;5.97;0.60;;;6.10;99.90;;;;;;5045038;28;20037;-63
2023/01/15 01:04:03;;;;;;;3.53;0.55;;;6.10;99.90;;;;;;5040055;28;20029;-61
2023/01/15 01:06:29;;;;;;;5.03;0.45;;;6.10;99.90;;;;;;5041639;28;20021;-64
2023/01/15 01:08:55;;;;;;;2.70;0.60;;;6.10;99.90;;;;;;5034214;28;20134;-63
2023/01/15 01:11:25;;;;;;;5.28;0.90;;;6.00;99.90;;;;;;5043553;28;20427;-64
2023/01/15 01:13:50;;;;;;;2.30;0.52;;;6.00;99.90;;;;;;5042613;28;20021;-64
2023/01/15 01:16:22;;;;;;;3.38;0.43;;;6.00;99.90;;;;;;5040575;28;20033;-64
2023/01/15 01:18:48;;;;;;;1.58;0.73;;;6.00;99.90;;;;;;5026785;28;20037;-64
2023/01/15 01:21:14;;;;;;;3.05;0.60;;;6.00;99.90;;;;;;5021137;28;20047;-64
2023/01/15 01:23:39;;;;;;;2.78;0.63;;;5.90;99.90;;;;;;5041829;28;20517;-64
2023/01/15 01:26:05;;;;;;;0.80;0.47;;;5.90;99.90;;;;;;5035250;28;20089;-65
2023/01/15 01:28:30;;;;;;;2.35;0.60;;;5.90;99.90;;;;;;5038342;28;20159;-64
2023/01/15 01:30:56;;;;;;;4.95;0.80;;;5.90;99.90;;;;;;5037504;28;20025;-63
2023/01/15 01:33:21;;;;;;;7.20;1.48;;;5.90;99.90;;;;;;5039654;28;20017;-64
2023/01/15 01:35:48;;;;;;;2.08;0.52;;;5.80;99.90;;;;;;5041791;28;20375;-63
2023/01/15 01:38:14;;;;;;;2.70;1.10;;;5.80;99.90;;;;;;5045082;28;20031;-63
2023/01/15 01:40:40;;;;;;;9.68;0.90;;;5.80;99.90;;;;;;5035182;28;20032;-63
2023/01/15 01:43:20;;;;;;;3.03;0.77;;;5.80;99.90;;;;;;5040092;28;20517;-63
2023/01/15 01:45:46;;;;;;;7.10;1.08;;;5.80;99.90;;;;;;5043609;28;20029;-64
2023/01/15 01:48:13;;;;;;;4.22;1.05;;;5.80;99.90;;;;;;5045243;28;20033;-63
2023/01/15 01:50:40;;;;;;;3.78;0.85;;;5.80;99.90;;;;;;5035161;28;20487;-64
2023/01/15 01:53:11;;;;;;;1.20;0.77;;;5.80;99.90;;;;;;5040389;28;20025;-64
2023/01/15 01:55:37;;;;;;;7.60;1.17;;;5.80;99.90;;;;;;5046234;28;20481;-63
2023/01/15 01:58:05;;;;;;;0.30;0.30;;;5.80;99.90;;;;;;5044300;28;20036;-63
2023/01/15 02:00:33;;;;;;;3.08;0.50;;;5.80;99.90;;;;;;5041697;28;20662;-63
2023/01/15 02:03:01;;;;;;;7.97;0.60;;;5.70;99.90;;;;;;5042287;28;21026;-63
2023/01/15 02:05:34;;;;;;;0.57;0.30;;;5.70;99.90;;;;;;5040694;28;20879;-63
2023/01/15 02:08:00;;;;;;;1.38;0.40;;;5.70;99.90;;;;;;5045474;28;20064;-63
2023/01/15 02:10:27;;;;;;;2.13;0.40;;;5.70;99.90;;;;;;5043815;28;20033;-64
2023/01/15 02:13:03;;;;;;;0.65;0.30;;;5.70;99.90;;;;;;5047902;28;20427;-63
2023/01/15 02:15:39;;;;;;;2.08;0.55;;;5.70;99.90;;;;;;5043800;28;20063;-63
2023/01/15 02:18:33;;;;;;;1.13;0.57;;;5.60;99.90;;;;;;5044213;28;20036;-63
2023/01/15 02:21:20;;;;;;;0.80;0.30;;;5.60;99.90;;;;;;5043047;28;20147;-63
2023/01/15 02:24:12;;;;;;;1.48;0.20;;;5.60;99.90;;;;;;5047002;28;20171;-63
2023/01/15 02:27:00;;;;;;;6.22;0.60;;;5.60;99.90;;;;;;5029035;28;20069;-63
2023/01/15 02:29:56;;;;;;;1.67;0.40;;;5.60;99.90;;;;;;5043171;28;20028;-63
2023/01/15 02:32:33;;;;;;;0.77;0.32;;;5.60;99.90;;;;;;5027897;28;20024;-63
2023/01/15 02:35:06;;;;;;;0.32;0.28;;;5.60;99.90;;;;;;5041245;28;20025;-63
2023/01/15 02:37:36;;;;;;;1.05;0.20;;;5.60;99.90;;;;;;5042093;28;20119;-64
2023/01/15 02:40:04;;;;;;;1.63;0.40;;;5.60;99.90;;;;;;5044369;28;20043;-63
2023/01/15 02:42:32;;;;;;;2.38;0.68;;;5.60;99.90;;;;;;5046183;28;20056;-63
2023/01/15 02:45:01;;;;;;;0.98;0.40;;;5.60;99.90;;;;;;5039400;28;22757;-63
2023/01/15 02:47:32;;;;;;;1.20;0.38;;;5.60;99.90;;;;;;5045790;28;20021;-62
2023/01/15 02:50:02;;;;;;;2.17;0.20;;;5.60;99.90;;;;;;5043237;28;20048;-63
2023/01/15 02:52:34;;;;;;;0.77;0.43;;;5.50;99.90;;;;;;5043701;28;20055;-63
2023/01/15 02:55:07;;;;;;;0.90;0.52;;;5.50;99.90;;;;;;5044547;28;20025;-62
2023/01/15 02:57:37;;;;;;;1.27;0.30;;;5.50;99.90;;;;;;5044507;28;20021;-61
2023/01/15 03:00:08;;;;;;;0.57;0.40;;;5.50;99.90;;;;;;5040152;28;20160;-62
2023/01/15 03:02:41;;;;;;;1.45;0.35;;;5.50;99.90;;;;;;5040658;28;20037;-63
2023/01/15 03:05:08;;;;;;;4.72;1.65;;;5.50;99.90;;;;;;5045805;28;20016;-63
2023/01/15 03:07:41;;;;;;;1.05;0.30;;;5.50;99.90;;;;;;5037949;28;20057;-63
2023/01/15 03:10:08;;;;;;;2.20;0.40;;;5.50;99.90;;;;;;5043087;28;20059;-63
2023/01/15 03:13:03;;;;;;;0.98;0.35;;;5.50;99.90;;;;;;5044224;28;20036;-63
2023/01/15 03:18:35;;;;;;;0.35;0.25;;;5.40;99.90;;;;;;5045631;28;20028;-63
2023/01/15 03:21:07;;;;;;;4.68;0.60;;;5.40;99.90;;;;;;5045855;28;20056;-63
2023/01/15 03:23:37;;;;;;;1.58;0.28;;;5.40;99.90;;;;;;5045081;28;20032;-63
2023/01/15 03:26:03;;;;;;;1.15;0.30;;;5.40;99.90;;;;;;5044997;28;20021;-62
2023/01/15 03:28:32;;;;;;;0.32;0.20;;;5.30;99.90;;;;;;5024376;28;20648;-63
2023/01/15 03:30:58;;;;;;;0.10;0.10;;;5.30;99.90;;;;;;5042008;28;20033;-63
2023/01/15 03:33:25;;;;;;;1.63;0.30;;;5.30;99.90;;;;;;5044820;28;20025;-63
2023/01/15 03:35:57;;;;;;;0.50;0.35;;;5.30;99.90;;;;;;5047272;28;20021;-63
2023/01/15 03:38:32;;;;;;;1.92;0.40;;;5.30;99.90;;;;;;5041102;28;20025;-62
2023/01/15 03:41:22;;;;;;;1.13;0.30;;;5.30;99.90;;;;;;5036785;28;20462;-62
2023/01/15 03:43:57;;;;;;;1.88;0.38;;;5.30;99.90;;;;;;5040951;28;20051;-63
2023/01/15 03:47:04;;;;;;;1.02;0.40;;;5.30;99.90;;;;;;5038636;28;20086;-62
2023/01/15 03:49:58;;;;;;;5.07;0.30;;;5.30;99.90;;;;;;5040999;28;20843;-62
2023/01/15 03:52:47;;;;;;;0.45;0.45;;;5.30;99.90;;;;;;5041867;28;20029;-62
2023/01/15 03:55:25;;;;;;;2.08;0.30;;;5.30;99.90;;;;;;5038483;28;20028;-62
2023/01/15 03:57:59;;;;;;;3.55;0.60;;;5.30;99.90;;;;;;5037649;28;20029;-63
2023/01/15 04:00:32;;;;;;;1.63;0.37;;;5.30;99.90;;;;;;5043727;28;20044;-62
2023/01/15 04:03:02;;;;;;;0.10;0.10;;;5.30;99.90;;;;;;5044587;28;20415;-63
2023/01/15 04:05:29;;;;;;;3.33;0.40;;;5.30;99.90;;;;;;5035112;28;20559;-60
2023/01/15 04:07:56;;;;;;;1.80;0.30;;;5.30;99.90;;;;;;5039167;28;20914;-63
2023/01/15 04:10:22;;;;;;;1.48;0.47;;;5.30;99.90;;;;;;5039088;28;20029;-63
2023/01/15 04:12:48;;;;;;;1.45;0.20;;;5.30;99.90;;;;;;5046888;28;20036;-63
2023/01/15 04:15:13;;;;;;;1.58;0.55;;;5.30;99.90;;;;;;5042461;28;20074;-63
2023/01/15 04:17:39;;;;;;;1.33;0.50;;;5.30;99.90;;;;;;5046692;28;20033;-63
2023/01/15 04:20:05;;;;;;;0.65;0.20;;;5.30;99.90;;;;;;5038273;28;20029;-62
2023/01/15 04:22:31;;;;;;;4.80;0.30;;;5.30;99.90;;;;;;5045179;28;20028;-63
2023/01/15 04:24:57;;;;;;;1.27;0.50;;;5.30;99.90;;;;;;5047592;28;20033;-62
2023/01/15 04:27:22;;;;;;;5.60;0.45;;;5.30;99.90;;;;;;5042085;28;20434;-63
2023/01/15 04:29:48;;;;;;;0.68;0.30;;;5.30;99.90;;;;;;5041699;28;20033;-63
2023/01/15 04:32:14;;;;;;;1.98;0.35;;;5.20;99.90;;;;;;5042455;28;20025;-63
2023/01/15 04:34:40;;;;;;;2.83;0.30;;;5.20;99.90;;;;;;5044873;28;20032;-65
2023/01/15 04:37:05;;;;;;;0.77;0.20;;;5.20;99.90;;;;;;5043659;28;20033;-62
2023/01/15 04:39:31;;;;;;;1.05;0.30;;;5.20;99.90;;;;;;5042103;28;20025;-64
2023/01/15 04:44:41;;;;;;;;;;;5.20;99.90;;;;;;5042338;28;20040;-63
2023/01/15 04:47:07;;;;;;;0.70;0.30;;;5.20;99.90;;;;;;5043406;28;19921;-63
2023/01/15 04:49:34;;;;;;;1.30;0.35;;;5.20;99.90;;;;;;5044208;28;20041;-63
2023/01/15 04:51:59;;;;;;;4.10;0.50;;;5.20;99.90;;;;;;5047237;28;20036;-62
2023/01/15 04:54:25;;;;;;;2.78;0.30;;;5.20;99.90;;;;;;5049464;28;20398;-62
2023/01/15 04:56:53;;;;;;;0.10;0.10;;;5.20;99.90;;;;;;5046716;28;20029;-63
2023/01/15 04:59:21;;;;;;;5.75;1.42;;;5.20;99.90;;;;;;5044573;28;20044;-63
2023/01/15 05:01:47;;;;;;;7.13;0.45;;;5.10;99.90;;;;;;5041469;28;20048;-63
2023/01/15 05:04:13;;;;;;;3.13;0.55;;;5.20;99.90;;;;;;5050338;28;20471;-62
2023/01/15 05:06:38;;;;;;;2.33;0.40;;;5.20;99.90;;;;;;5048290;28;20124;-63
2023/01/15 05:09:05;;;;;;;3.92;0.43;;;5.20;99.90;;;;;;5048410;28;20148;-62
2023/01/15 05:11:33;;;;;;;10.30;0.73;;;5.20;99.90;;;;;;5043815;28;20021;-63
2023/01/15 05:13:59;;;;;;;7.70;0.60;;;5.20;99.90;;;;;;5044792;28;20035;-60
2023/01/15 05:16:27;;;;;;;0.65;0.30;;;5.20;99.90;;;;;;5048529;28;20025;-63
2023/01/15 05:18:57;;;;;;;4.78;0.47;;;5.10;99.90;;;;;;5032306;28;20172;-64
2023/01/15 05:21:25;;;;;;;3.25;0.55;;;5.20;99.90;;;;;;5046740;28;20048;-63
2023/01/15 05:23:53;;;;;;;2.13;0.60;;;5.10;99.90;;;;;;5048211;28;20036;-63
2023/01/15 05:26:20;;;;;;;3.40;0.50;;;5.10;99.90;;;;;;5046379;28;20040;-62
2023/01/15 05:28:46;;;;;;;11.60;1.90;;;5.10;99.90;;;;;;5043399;28;20036;-63
2023/01/15 05:31:14;;;;;;;5.05;0.40;;;5.10;99.90;;;;;;5047013;28;20037;-63
2023/01/15 05:33:41;;;;;;;2.95;0.65;;;5.20;99.90;;;;;;5034685;28;20721;-63
2023/01/15 05:36:10;;;;;;;2.13;0.52;;;5.20;99.90;;;;;;5047209;28;20029;-62
2023/01/15 05:38:36;;;;;;;4.80;0.57;;;5.20;99.90;;;;;;5043017;28;20115;-63
2023/01/15 05:43:55;;;;;;;2.92;0.40;;;5.20;99.90;;;;;;5047006;28;20043;-63
2023/01/15 05:46:21;;;;;;;4.07;0.38;;;5.20;99.90;;;;;;5045932;28;20033;-63
2023/01/15 05:48:47;;;;;;;3.22;0.40;;;5.20;99.90;;;;;;5040873;28;20035;-63
2023/01/15 05:51:13;;;;;;;4.25;0.38;;;5.30;99.90;;;;;;5041413;28;20040;-62
2023/01/15 05:53:39;;;;;;;1.85;0.52;;;5.30;99.90;;;;;;5043275;28;20029;-63
2023/01/15 05:56:05;;;;;;;0.60;0.32;;;5.30;99.90;;;;;;5046565;28;20039;-63
2023/01/15 05:58:30;;;;;;;1.60;0.47;;;5.30;99.90;;;;;;5046116;28;20037;-63
2023/01/15 06:00:56;;;;;;;3.72;0.40;;;5.30;99.90;;;;;;5041680;28;20483;-63
2023/01/15 06:03:23;;;;;;;1.85;0.50;;;5.30;99.90;;;;;;5044307;28;20525;-62
2023/01/15 06:05:53;;;;;;;2.05;0.35;;;5.30;99.90;;;;;;5045096;28;20047;-63
2023/01/15 06:08:19;;;;;;;3.45;0.50;;;5.30;99.90;;;;;;5043812;28;20037;-62
2023/01/15 06:10:45;;;;;;;3.30;1.75;;;5.30;99.90;;;;;;5044878;28;20039;-63
2023/01/15 06:13:12;;;;;;;2.53;0.50;;;5.30;99.90;;;;;;5041973;28;20047;-62
2023/01/15 06:15:38;;;;;;;0.32;0.25;;;5.30;99.90;;;;;;5046605;28;20064;-62
2023/01/15 06:18:04;;;;;;;12.32;0.75;;;5.30;99.90;;;;;;5046637;28;20069;-63
2023/01/15 06:20:29;;;;;;;3.22;0.40;;;5.30;99.90;;;;;;5028921;28;20413;-62
2023/01/15 06:22:55;;;;;;;1.45;0.35;;;5.30;99.90;;;;;;5047056;28;20041;-62
2023/01/15 06:25:21;;;;;;;5.10;0.85;;;5.20;99.90;;;;;;5048163;28;20041;-63
2023/01/15 06:27:48;;;;;;;4.88;0.52;;;5.20;99.90;;;;;;5048003;28;20037;-62
2023/01/15 06:30:14;;;;;;;2.65;0.93;;;5.20;99.90;;;;;;5045438;28;20471;-62
2023/01/15 06:32:40;;;;;;;7.35;1.08;;;5.20;99.90;;;;;;5047020;28;20043;-63
2023/01/15 06:35:06;;;;;;;1.60;0.50;;;5.20;99.90;;;;;;5043476;28;20045;-63
2023/01/15 06:37:31;;;;;;;10.02;0.80;;;5.20;99.90;;;;;;5043423;28;20036;-63
2023/01/15 06:39:57;;;;;;;2.42;0.73;;;5.10;99.90;;;;;;5042160;28;20465;-63
2023/01/15 06:47:53;;;;;;;0.95;0.52;;;5.10;99.90;;;;;;5041108;28;20099;-63
2023/01/15 06:50:19;;;;;;;3.08;0.60;;;5.10;99.90;;;;;;5046894;28;20491;-63
2023/01/15 06:52:45;;;;;;;2.38;1.00;;;5.10;99.90;;;;;;5044091;28;20033;-63
2023/01/15 06:55:10;;;;;;;4.38;1.17;;;5.10;99.90;;;;;;5047888;28;20037;-62
2023/01/15 06:57:40;;;;;;;1.85;0.45;;;5.10;99.90;;;;;;5042466;28;20397;-62
2023/01/15 07:00:09;;;;;;;1.00;0.30;;;5.10;99.90;;;;;;5039035;28;20163;-62
2023/01/15 07:02:35;;;;;;;0.90;0.40;;;5.10;99.90;;;;;;5045697;28;20483;-63
2023/01/15 07:05:01;;;;;;;0.93;0.47;;;5.10;99.90;;;;;;5043411;28;20032;-63
2023/01/15 07:07:27;;;;;;;1.48;0.30;;;5.00;99.90;;;;;;5042811;28;20040;-63
2023/01/15 07:09:53;;;;;;;7.07;0.30;;;5.00;99.90;;;;;;5040496;28;20029;-64
2023/01/15 07:12:20;;;;;;;0.43;0.25;;;5.00;99.90;;;;;;5043436;28;20032;-64
2023/01/15 07:14:46;;;;;;;3.72;0.35;;;5.00;99.90;;;;;;5043289;28;20033;-64
2023/01/15 07:17:12;;;;;;;2.08;0.32;;;5.00;99.90;;;;;;5043270;28;20021;-64
2023/01/15 07:19:37;;;;;;;1.25;0.35;;;5.00;99.90;;;;;;5029427;28;20045;-64
2023/01/15 07:22:04;;;;;;;0.30;0.20;;;5.00;99.90;;;;;;5045517;28;20075;-64
2023/01/15 07:24:29;;;;;;;1.65;0.68;;;4.90;99.90;;;;;;5043024;28;20021;-64
2023/01/15 07:26:55;;;;;;;0.30;0.30;;;4.90;99.90;;;;;;5047280;28;20032;-64
2023/01/15 07:29:22;;;;;;;0.75;0.20;;;4.90;99.90;;;;;;5044863;28;20092;-63
2023/01/15 07:31:48;;;;;;;0.30;0.20;;;4.90;99.90;;;;;;5045447;28;20071;-64
2023/01/15 07:34:13;;;;;;;1.23;0.22;;;4.80;99.90;;;;;;5043903;28;20029;-64
2023/01/15 07:36:39;;;;;;;0.25;0.20;;;4.80;99.90;;;;;;5045692;28;20036;-65
2023/01/15 07:39:06;;;;;;;1.48;0.47;;;4.80;99.90;;;;;;5038883;28;20030;-64
2023/01/15 07:49:45;;;;;;;0.38;0.30;;;4.70;99.90;;;;;;5036689;28;20588;-63
2023/01/15 07:52:19;;;;;;;0.30;0.30;;;4.70;99.90;;;;;;5040335;28;20732;-63
2023/01/15 07:54:46;;;;;;;2.83;0.30;;;4.70;99.90;;;;;;5045033;28;20498;-63
2023/01/15 07:57:15;;;;;;;0.30;0.20;;;4.70;99.90;;;;;;5039233;28;20036;-63
2023/01/15 07:59:41;;;;;;;1.85;0.68;;;4.70;99.90;;;;;;5038677;28;20517;-64
2023/01/15 08:02:06;;;;;;;41.85;11.52;;;4.70;99.90;;;;;;5036352;28;20045;-63
2023/01/15 08:04:32;;;;;;;64.47;29.77;;;4.80;99.90;;;;;;5038138;28;20491;-63
2023/01/15 08:06:59;;;;;;;31.65;18.35;;;4.80;99.90;;;;;;5036242;28;20033;-63
2023/01/15 08:09:25;;;;;;;9.73;4.88;;;4.80;99.90;;;;;;5040141;28;20053;-63
2023/01/15 08:17:19;;;;;;;2.85;1.45;;;4.90;99.90;;;;;;5040819;28;20031;-63
2023/01/15 08:19:45;;;;;;;2.97;1.33;;;4.90;99.90;;;;;;5028560;28;20048;-63
2023/01/15 08:22:11;;;;;;;0.60;0.40;;;4.90;99.90;;;;;;5045419;28;20029;-63
2023/01/15 08:24:36;;;;;;;1.52;1.00;;;4.90;99.90;;;;;;5049683;28;20029;-63
2023/01/15 08:27:02;;;;;;;1.30;0.90;;;5.00;99.90;;;;;;5048944;28;20549;-63
2023/01/15 08:29:28;;;;;;;0.95;0.57;;;5.00;99.90;;;;;;5050898;28;20474;-63
2023/01/15 08:31:54;;;;;;;0.70;0.40;;;5.00;99.90;;;;;;5044523;28;20525;-63
2023/01/15 08:34:19;;;;;;;0.20;0.20;;;4.90;99.90;;;;;;5048261;28;21101;-63
2023/01/15 08:36:45;;;;;;;0.50;0.20;;;4.80;99.90;;;;;;5047464;28;20024;-64
2023/01/15 08:39:11;;;;;;;0.30;0.20;;;4.60;99.90;;;;;;5044224;28;20032;-63
2023/01/15 08:41:37;;;;;;;0.47;0.30;;;4.40;99.90;;;;;;5040834;28;20032;-63
2023/01/15 08:44:02;;;;;;;1.60;0.28;;;4.30;99.90;;;;;;5042336;28;20052;-63
2023/01/15 08:46:28;;;;;;;1.17;0.20;;;4.20;99.90;;;;;;5049973;28;20639;-63
2023/01/15 08:48:54;;;;;;;2.65;0.15;;;4.20;99.90;;;;;;5048524;28;20033;-64
2023/01/15 08:51:19;;;;;;;2.58;0.73;;;4.30;99.90;;;;;;5044747;28;20049;-63
2023/01/15 08:53:45;;;;;;;0.75;0.22;;;4.20;99.90;;;;;;5050993;28;20100;-64
2023/01/15 08:56:15;;;;;;;3.15;0.20;;;4.20;99.90;;;;;;5049869;28;20150;-63
2023/01/15 08:58:42;;;;;;;0.28;0.22;;;4.20;99.90;;;;;;5044861;28;20051;-64
2023/01/15 09:01:09;;;;;;;1.13;0.45;;;4.20;99.90;;;;;;5039737;28;20395;-64
2023/01/15 09:03:35;;;;;;;2.72;0.50;;;4.20;99.90;;;;;;5049602;28;20469;-64
2023/01/15 09:06:01;;;;;;;1.60;0.40;;;4.20;99.90;;;;;;5049603;28;20108;-63
2023/01/15 09:08:28;;;;;;;0.70;0.55;;;4.20;99.90;;;;;;5045898;28;20116;-64
2023/01/15 09:11:01;;;;;;;1.17;0.47;;;4.20;99.90;;;;;;5046040;28;20059;-64
2023/01/15 09:13:28;;;;;;;1.30;0.57;;;4.30;99.90;;;;;;5046567;28;20151;-64
2023/01/15 09:16:01;;;;;;;8.60;0.70;;;4.30;99.90;;;;;;5046863;28;20029;-63
2023/01/15 09:18:27;;;;;;;5.65;0.80;;;4.30;99.90;;;;;;5046447;28;20025;-63
2023/01/15 09:20:52;;;;;;;2.03;0.80;;;4.40;99.90;;;;;;5030074;28;20399;-64
2023/01/15 09:23:18;;;;;;;4.10;2.08;;;4.40;99.90;;;;;;5049115;28;20033;-64
2023/01/15 09:25:59;;;;;;;7.25;4.43;;;4.40;99.90;;;;;;5040017;28;20057;-64
2023/01/15 09:28:25;;;;;;;6.65;3.90;;;4.50;99.90;;;;;;5047953;28;20457;-64
2023/01/15 09:30:51;;;;;;;3.60;1.92;;;4.50;99.90;;;;;;5040435;28;20048;-64
2023/01/15 09:33:16;;;;;;;3.78;2.10;;;4.60;99.90;;;;;;5045157;28;20029;-64
2023/01/15 09:35:43;;;;;;;5.65;1.00;;;4.50;99.90;;;;;;5048109;28;20056;-64
2023/01/15 09:38:12;;;;;;;4.13;0.98;;;4.60;99.90;;;;;;5047768;28;20053;-64
2023/01/15 09:40:56;;;;;;;4.32;1.10;;;4.60;99.90;;;;;;5042441;28;20033;-64
2023/01/15 09:43:40;;;;;;;2.35;1.50;;;4.70;99.90;;;;;;5042924;28;20025;-63
2023/01/15 09:46:12;;;;;;;6.57;3.10;;;4.80;99.90;;;;;;5044408;28;20029;-64
2023/01/15 09:49:00;;;;;;;2.05;1.33;;;4.70;99.90;;;;;;5047913;28;20143;-65
2023/01/15 09:51:40;;;;;;;2.05;0.88;;;4.70;99.90;;;;;;5046288;28;20044;-64
2023/01/15 09:54:40;;;;;;;2.80;0.73;;;4.70;99.90;;;;;;5040816;28;20029;-63
2023/01/15 09:57:12;;;;;;;5.38;2.38;;;4.60;99.90;;;;;;5050223;28;20102;-64
2023/01/15 09:59:42;;;;;;;3.00;1.17;;;4.50;99.90;;;;;;5039198;28;20036;-63
2023/01/15 10:02:44;;;;;;;4.28;2.08;;;4.50;99.90;;;;;;5042843;28;20029;-64
2023/01/15 10:05:30;;;;;;;9.43;3.55;;;4.50;99.90;;;;;;5047318;28;20482;-63
2023/01/15 10:08:11;;;;;;;17.38;7.78;;;4.60;99.90;;;;;;5046080;28;20078;-64
2023/01/15 10:10:48;;;;;;;7.72;3.58;;;5.00;99.90;;;;;;5043085;28;20082;-64
2023/01/15 10:13:33;;;;;;;10.30;3.72;;;5.30;99.90;;;;;;5045389;28;20166;-64
2023/01/15 10:15:58;;;;;;;;;;;5.40;99.90;;;;;;5045400;28;20025;-64
2023/01/15 10:18:26;;;;;;;9.77;3.08;;;5.50;99.90;;;;;;5046421;28;20508;-63
2023/01/15 10:21:14;;;;;;;7.38;2.45;;;5.50;99.90;;;;;;5030339;28;20106;-64
2023/01/15 10:23:54;;;;;;;8.68;3.10;;;5.50;99.90;;;;;;5046517;28;20120;-63
2023/01/15 10:26:53;;;;;;;4.93;1.48;;;5.50;99.90;;;;;;5048906;28;20438;-64
2023/01/15 10:29:37;;;;;;;6.50;1.90;;;5.60;99.90;;;;;;5001855;28;20060;-63
2023/01/15 10:32:09;;;;;;;13.75;2.78;;;5.60;99.90;;;;;;5044370;28;20452;-64
2023/01/15 10:35:02;;;;;;;17.50;5.65;;;5.70;99.90;;;;;;5048121;28;20052;-63
2023/01/15 10:37:50;;;;;;;14.68;4.00;;;5.80;99.90;;;;;;5043242;28;20017;-64
2023/01/15 10:40:40;;;;;;;7.88;2.50;;;6.00;99.90;;;;;;5043962;28;20120;-65
2023/01/15 10:43:23;;;;;;;18.60;6.78;;;6.20;99.90;;;;;;5042802;28;20036;-64
2023/01/15 10:45:58;;;;;;;30.97;9.53;;;6.40;99.90;;;;;;5044395;28;20033;-63
2023/01/15 10:48:38;;;;;;;5.40;2.03;;;6.50;99.90;;;;;;5044995;28;20055;-64
2023/01/15 10:51:16;;;;;;;25.05;8.13;;;6.60;99.90;;;;;;5042726;28;20123;-63
2023/01/15 10:53:48;;;;;;;41.88;7.40;;;6.70;99.90;;;;;;5040104;28;20028;-65
2023/01/15 10:56:25;;;;;;;13.57;4.32;;;6.80;99.90;;;;;;5044980;28;20032;-63
2023/01/15 10:58:57;;;;;;;16.85;4.38;;;7.00;99.90;;;;;;5044197;28;20486;-64
2023/01/15 11:01:25;;;;;;;25.17;8.20;;;7.10;99.90;;;;;;5044897;28;20114;-64
2023/01/15 11:03:52;;;;;;;11.55;2.92;;;7.20;99.90;;;;;;5045472;28;20112;-64
2023/01/15 11:06:20;;;;;;;11.00;3.08;;;7.40;99.90;;;;;;5048839;28;20087;-64
2023/01/15 11:08:58;;;;;;;30.67;10.95;;;7.40;99.90;;;;;;5046512;28;20032;-64
2023/01/15 11:20:29;;;;;;;9.10;2.97;;;7.60;99.90;;;;;;5020566;28;20114;-64
2023/01/15 11:22:56;;;;;;;3.05;2.05;;;7.60;99.90;;;;;;5049191;28;20029;-64
2023/01/15 11:25:28;;;;;;;9.90;3.00;;;7.50;99.90;;;;;;5041994;28;20040;-64
2023/01/15 11:27:54;;;;;;;3.63;1.13;;;7.50;99.90;;;;;;5047105;28;20052;-64
2023/01/15 11:30:36;;;;;;;5.40;1.85;;;7.40;99.90;;;;;;5043092;28;20382;-64
2023/01/15 11:33:03;;;;;;;5.28;1.63;;;7.30;99.90;;;;;;5043981;28;20040;-64
2023/01/15 11:35:29;;;;;;;5.30;1.90;;;7.20;99.90;;;;;;5047944;28;20056;-63
2023/01/15 11:38:06;;;;;;;6.63;1.30;;;7.20;99.90;;;;;;5042161;28;20418;-63
2023/01/15 11:40:33;;;;;;;8.23;1.10;;;7.20;99.90;;;;;;5041624;28;20094;-63
2023/01/15 11:51:40;;;;;;;6.57;1.20;;;7.00;99.90;;;;;;5043678;28;20123;-63
2023/01/15 11:54:11;;;;;;;5.47;1.10;;;7.00;99.90;;;;;;5040569;28;20021;-64
2023/01/15 11:56:41;;;;;;;4.18;1.63;;;7.00;99.90;;;;;;5046473;28;20100;-63
2023/01/15 11:59:11;;;;;;;2.33;1.00;;;7.00;99.90;;;;;;5041751;28;20060;-63
2023/01/15 12:01:46;;;;;;;3.22;0.77;;;7.10;99.90;;;;;;5045249;28;20415;-63
2023/01/15 12:04:48;;;;;;;2.58;0.70;;;7.10;99.90;;;;;;5044144;28;20086;-62
2023/01/15 12:07:14;;;;;;;5.20;0.90;;;7.10;99.90;;;;;;5040324;28;20032;-64
2023/01/15 12:09:52;;;;;;;4.68;1.20;;;7.00;99.90;;;;;;5046606;28;20537;-64
2023/01/15 12:12:41;;;;;;;5.22;0.82;;;6.90;99.90;;;;;;5045079;28;20093;-64
2023/01/15 12:15:36;;;;;;;4.00;1.20;;;6.80;99.90;;;;;;5038957;28;20036;-63
2023/01/15 12:18:08;;;;;;;2.17;0.63;;;6.70;99.90;;;;;;5044700;28;20026;-64
2023/01/15 12:21:03;;;;;;;3.20;0.77;;;6.60;99.90;;;;;;5030425;28;20068;-64
2023/01/15 12:23:47;;;;;;;4.45;0.82;;;6.60;99.90;;;;;;5046534;28;20024;-64
2023/01/15 12:26:16;;;;;;;6.07;1.45;;;6.70;99.90;;;;;;5041913;28;20763;-64
2023/01/15 12:29:14;;;;;;;4.25;1.23;;;6.70;99.90;;;;;;5045264;28;20040;-64
2023/01/15 12:31:45;;;;;;;2.60;0.85;;;6.70;99.90;;;;;;5044356;28;20033;-64
2023/01/15 12:34:45;;;;;;;6.45;2.47;;;6.80;99.90;;;;;;5042044;28;20025;-64
2023/01/15 12:37:25;;;;;;;1.65;0.90;;;6.80;99.90;;;;;;5037193;28;20039;-64
2023/01/15 12:40:26;;;;;;;4.75;1.02;;;6.80;99.90;;;;;;5043428;28;20030;-63
2023/01/15 12:45:43;;;;;;;4.28;1.50;;;7.00;99.90;;;;;;5039600;28;20040;-64
2023/01/15 12:48:18;;;;;;;4.88;1.67;;;7.10;99.90;;;;;;5041336;28;20025;-64
2023/01/15 12:50:48;;;;;;;7.25;2.03;;;7.10;99.90;;;;;;5026493;28;20494;-63
2023/01/15 12:53:41;;;;;;;6.47;2.05;;;7.00;99.90;;;;;;5042317;28;20402;-64
2023/01/15 12:56:29;;;;;;;9.55;1.48;;;6.90;99.90;;;;;;5044916;28;20433;-64
2023/01/15 12:59:32;;;;;;;3.78;1.17;;;6.80;99.90;;;;;;5011869;28;20033;-63
2023/01/15 13:02:10;;;;;;;12.23;2.78;;;6.80;99.90;;;;;;5041454;28;20048;-64
2023/01/15 13:04:38;;;;;;;7.55;1.92;;;6.80;99.90;;;;;;5034588;28;20499;-63
2023/01/15 13:07:34;;;;;;;9.88;2.55;;;6.80;99.90;;;;;;5044831;28;20367;-64
2023/01/15 13:10:29;;;;;;;4.55;1.50;;;6.80;99.90;;;;;;5044848;28;20039;-63
2023/01/15 13:13:13;;;;;;;11.55;3.72;;;6.90;99.90;;;;;;5043689;28;20040;-64
2023/01/15 13:16:01;;;;;;;12.75;2.80;;;7.00;99.90;;;;;;5041910;28;20082;-64
2023/01/15 13:19:06;;;;;;;7.80;1.80;;;7.00;99.90;;;;;;5047004;28;20847;-64
2023/01/15 13:21:33;;;;;;;;;;;7.00;99.90;;;;;;5029291;28;20037;-66
2023/01/15 13:24:31;;;;;;;4.65;1.90;;;7.00;99.90;;;;;;5049342;28;19960;-63
2023/01/15 13:27:18;;;;;;;4.55;1.90;;;7.00;99.90;;;;;;5039063;28;20115;-63
2023/01/15 13:29:49;;;;;;;7.07;1.00;;;6.90;99.90;;;;;;5047370;28;20025;-63
2023/01/15 13:32:32;;;;;;;9.88;2.60;;;6.90;99.90;;;;;;5048965;28;20151;-62
2023/01/15 13:35:00;;;;;;;5.97;1.50;;;6.90;99.90;;;;;;5046003;28;20386;-63
2023/01/15 13:37:42;;;;;;;4.65;0.90;;;6.90;99.90;;;;;;5050906;28;20470;-63
2023/01/15 13:40:17;;;;;;;3.50;0.88;;;6.90;99.90;;;;;;5049007;28;20033;-63
2023/01/15 13:42:47;;;;;;;2.80;1.65;;;6.90;99.90;;;;;;5047306;28;20044;-63
2023/01/15 13:45:15;;;;;;;10.93;1.35;;;6.90;99.90;;;;;;5042348;28;20036;-62
2023/01/15 13:47:49;;;;;;;7.00;1.13;;;6.90;99.90;;;;;;5045130;28;20036;-62
2023/01/15 13:50:35;;;;;;;;;;;7.00;99.90;;;;;;5045785;28;20021;-63
2023/01/15 13:53:24;;;;;;;2.72;0.70;;;7.00;99.90;;;;;;5044373;28;19967;-63
2023/01/15 13:56:04;;;;;;;8.05;2.17;;;7.10;99.90;;;;;;5040862;28;20577;-63
2023/01/15 13:58:33;;;;;;;3.13;0.52;;;7.10;99.90;;;;;;5044756;28;20121;-63
2023/01/15 14:01:20;;;;;;;3.95;1.10;;;7.10;99.90;;;;;;5050350;28;20021;-63
2023/01/15 14:04:00;;;;;;;2.63;1.05;;;7.10;99.90;;;;;;5048714;28;20033;-63
2023/01/15 14:06:48;;;;;;;11.35;1.70;;;7.10;99.90;;;;;;5048859;28;20033;-63
2023/01/15 14:09:30;;;;;;;5.20;1.00;;;7.10;99.90;;;;;;5045680;28;20071;-63
2023/01/15 14:12:33;;;;;;;0.95;0.63;;;7.10;99.90;;;;;;5047237;28;20446;-63
2023/01/15 14:15:25;;;;;;;4.50;0.95;;;7.10;99.90;;;;;;5044902;28;20025;-63